14  °C
Temperature
12  °C
  Dewpoint
   Humidity
Temp | Dewpoint | Humidity
5  km/h
Wind Speed
3  mph
Wind Speed
3  kts
Wind Speed
Calm
Due North

Wind Speed
Clear
Conditions
Pressure 1013.92 (hPa) - 29.94 (in)
Visibility 6.2 (mi) - 10.0 (km)

Current Conditions
EGTE
Location 6km (3.2mi)
Metar :EGTE 022150Z VRB03KT CAVOK 14/12 Q1014
Mon 2nd August 21:50 pm

Airport
  Metar Aviation API Data Provided by https://www.checkwx.com/ CSS/SVG/PHP scripts by weather34.com © 2015-2021